createdAt,value
2022-12-23T00:00:12.727Z,101775.41
2022-12-23T00:01:17.394Z,101768.44
2022-12-23T00:02:19.799Z,101774.94
2022-12-23T00:03:23.656Z,101769.06
2022-12-23T00:04:26.085Z,101768.38
2022-12-23T00:05:35.756Z,101766.19
2022-12-23T00:06:40.930Z,101763.38
2022-12-23T00:07:45.016Z,101765.06
2022-12-23T00:08:48.748Z,101759.72
2022-12-23T00:09:51.057Z,101762.81
2022-12-23T00:10:56.254Z,101764.75
2022-12-23T00:12:16.875Z,101759.47
2022-12-23T00:13:39.337Z,101751.50
2022-12-23T00:15:00.165Z,101750.22
2022-12-23T00:16:05.845Z,101751.03
2022-12-23T00:17:21.652Z,101740.66
2022-12-23T00:18:25.342Z,101743.81
2022-12-23T00:19:28.759Z,101742.81
2022-12-23T00:20:31.049Z,101735.47
2022-12-23T00:21:36.044Z,101740.50
2022-12-23T00:22:57.425Z,101739.94
2022-12-23T00:24:00.778Z,101738.69
2022-12-23T00:25:03.196Z,101741.88
2022-12-23T00:26:07.424Z,101744.16
2022-12-23T00:27:09.871Z,101753.44
2022-12-23T00:28:15.223Z,101754.91
2022-12-23T00:29:19.008Z,101761.31
2022-12-23T00:30:22.287Z,101751.72
2022-12-23T00:31:26.241Z,101756.84
2022-12-23T00:32:28.682Z,101753.06
2022-12-23T00:33:33.940Z,101753.63
2022-12-23T00:34:36.474Z,101749.28
2022-12-23T00:35:39.760Z,101757.44
2022-12-23T00:36:43.097Z,101764.94
2022-12-23T00:37:45.542Z,101771.78
2022-12-23T00:39:06.967Z,101774.31
2022-12-23T00:40:31.278Z,101773.53
2022-12-23T00:41:52.122Z,101777.97
2022-12-23T00:42:55.567Z,101771.81
2022-12-23T00:43:58.341Z,101761.63
2022-12-23T00:45:16.000Z,101757.97
2022-12-23T00:46:18.547Z,101757.50
2022-12-23T00:47:39.299Z,101762.19
2022-12-23T00:49:00.381Z,101763.09
2022-12-23T00:50:03.865Z,101753.28
2022-12-23T00:51:06.460Z,101749.50
2022-12-23T00:52:12.217Z,101764.16
2022-12-23T00:53:14.573Z,101767.78
2022-12-23T00:54:18.513Z,101771.31
2022-12-23T00:55:21.211Z,101771.09
2022-12-23T00:56:24.528Z,101765.97
2022-12-23T00:57:27.895Z,101766.56
2022-12-23T00:58:32.141Z,101771.59
2022-12-23T00:59:36.085Z,101765.88
2022-12-23T01:00:58.570Z,101772.38
2022-12-23T01:02:19.460Z,101769.88
2022-12-23T01:03:40.267Z,101764.75
2022-12-23T01:05:16.011Z,101763.13
2022-12-23T01:06:19.843Z,101763.78
2022-12-23T01:07:22.379Z,101756.34
2022-12-23T01:08:25.753Z,101751.09
2022-12-23T01:09:28.347Z,101758.53
2022-12-23T01:10:31.977Z,101756.25
2022-12-23T01:11:34.363Z,101766.38
2022-12-23T01:12:37.639Z,101754.88
2022-12-23T01:13:40.405Z,101762.75
2022-12-23T01:14:44.072Z,101757.09
2022-12-23T01:15:47.854Z,101761.00
2022-12-23T01:16:51.322Z,101757.69
2022-12-23T01:17:53.771Z,101755.06
2022-12-23T01:18:57.265Z,101752.00
2022-12-23T01:19:59.569Z,101752.59
2022-12-23T01:21:04.211Z,101755.91
2022-12-23T01:22:06.714Z,101754.06
2022-12-23T01:23:10.355Z,101747.81
2022-12-23T01:24:12.942Z,101748.81
2022-12-23T01:25:17.163Z,101749.19
2022-12-23T01:26:19.542Z,101757.19
2022-12-23T01:27:23.001Z,101752.47
2022-12-23T01:28:25.909Z,101751.31
2022-12-23T01:29:30.092Z,101746.41
2022-12-23T01:30:32.609Z,101752.25
2022-12-23T01:31:37.594Z,101748.84
2022-12-23T01:32:39.995Z,101749.97
2022-12-23T01:33:43.279Z,101747.69
2022-12-23T01:34:45.667Z,101747.69
2022-12-23T01:35:49.592Z,101737.09
2022-12-23T01:36:52.052Z,101747.13
2022-12-23T01:37:55.603Z,101746.41
2022-12-23T01:38:58.081Z,101743.13
2022-12-23T01:40:01.464Z,101744.47
2022-12-23T01:41:03.937Z,101747.44
2022-12-23T01:42:28.330Z,101747.47
2022-12-23T01:43:48.048Z,101751.34
2022-12-23T01:44:57.085Z,101749.63
2022-12-23T01:46:00.600Z,101754.09
2022-12-23T01:47:07.324Z,101755.00
2022-12-23T01:48:13.735Z,101752.03
2022-12-23T01:49:16.251Z,101757.84
2022-12-23T01:50:24.671Z,101754.63
2022-12-23T01:51:31.049Z,101752.78
2022-12-23T01:52:38.020Z,101756.34
2022-12-23T01:53:44.958Z,101755.69
2022-12-23T01:54:47.435Z,101762.91
2022-12-23T01:55:55.536Z,101761.19
2022-12-23T01:56:58.744Z,101763.72
2022-12-23T01:58:07.139Z,101759.94
2022-12-23T01:59:35.018Z,101763.72
2022-12-23T02:00:58.152Z,101769.88
2022-12-23T02:02:19.601Z,101764.28
2022-12-23T02:03:41.934Z,101768.59
2022-12-23T02:04:45.478Z,101761.19
2022-12-23T02:05:49.105Z,101764.75
2022-12-23T02:07:10.641Z,101764.72
2022-12-23T02:08:33.774Z,101762.19
2022-12-23T02:09:39.208Z,101763.22
2022-12-23T02:10:59.552Z,101760.72
2022-12-23T02:12:40.911Z,101766.59
2022-12-23T02:14:06.672Z,101768.13
2022-12-23T02:15:46.570Z,101774.78
2022-12-23T02:16:56.394Z,101767.78
2022-12-23T02:18:08.995Z,101766.94
2022-12-23T02:19:19.197Z,101768.22
2022-12-23T02:20:46.558Z,101771.19
2022-12-23T02:22:20.194Z,101766.44
2022-12-23T02:23:47.667Z,101760.41
2022-12-23T02:25:27.212Z,101767.78
2022-12-23T02:27:02.291Z,101767.66
2022-12-23T02:28:27.536Z,101764.28
2022-12-23T02:29:58.918Z,101764.75
2022-12-23T02:31:10.699Z,101771.31
2022-12-23T02:32:20.915Z,101778.41
2022-12-23T02:33:42.340Z,101780.09
2022-12-23T02:34:52.895Z,101772.69
2022-12-23T02:36:06.311Z,101778.94
2022-12-23T02:37:19.022Z,101767.84
2022-12-23T02:38:28.084Z,101765.56
2022-12-23T02:39:42.649Z,101766.59
2022-12-23T02:40:55.088Z,101770.63
2022-12-23T02:42:05.994Z,101771.16
2022-12-23T02:43:17.362Z,101774.06
2022-12-23T02:44:27.562Z,101781.16
2022-12-23T02:45:38.096Z,101777.06
2022-12-23T02:46:47.796Z,101781.13
2022-12-23T02:47:55.886Z,101785.84
2022-12-23T02:49:06.224Z,101790.31
2022-12-23T02:50:13.668Z,101779.91
2022-12-23T02:51:18.097Z,101785.56
2022-12-23T02:52:25.215Z,101785.34
2022-12-23T02:53:33.524Z,101784.09
2022-12-23T02:54:40.991Z,101782.28
2022-12-23T02:55:46.733Z,101787.69
2022-12-23T02:56:52.889Z,101782.44
2022-12-23T02:57:59.054Z,101775.38
2022-12-23T02:59:05.619Z,101778.94
2022-12-23T03:00:10.495Z,101773.31
2022-12-23T03:01:15.622Z,101773.31
2022-12-23T03:02:21.147Z,101771.97
2022-12-23T03:03:25.282Z,101769.50
2022-12-23T03:04:28.618Z,101766.53
2022-12-23T03:05:35.322Z,101759.78
2022-12-23T03:06:41.815Z,101753.84
2022-12-23T03:07:44.223Z,101761.25
2022-12-23T03:08:48.760Z,101757.63
2022-12-23T03:09:58.868Z,101757.38
2022-12-23T03:11:07.093Z,101750.22
2022-12-23T03:12:21.133Z,101753.16
2022-12-23T03:13:33.184Z,101755.13
2022-12-23T03:14:55.871Z,101754.41
2022-12-23T03:16:12.139Z,101759.03
2022-12-23T03:17:29.366Z,101755.06
2022-12-23T03:18:40.655Z,101756.25
2022-12-23T03:19:51.341Z,101761.41
2022-12-23T03:20:59.499Z,101757.31
2022-12-23T03:22:12.382Z,101755.06
2022-12-23T03:23:22.047Z,101761.41
2022-12-23T03:24:36.303Z,101757.91
2022-12-23T03:25:46.408Z,101755.47
2022-12-23T03:26:56.312Z,101760.16
2022-12-23T03:28:03.428Z,101770.69
2022-12-23T03:29:13.051Z,101763.03
2022-12-23T03:30:19.228Z,101760.66
2022-12-23T03:31:26.928Z,101766.44
2022-12-23T03:32:36.971Z,101761.94
2022-12-23T03:33:43.847Z,101762.59
2022-12-23T03:34:48.661Z,101765.88
2022-12-23T03:35:58.062Z,101765.25
2022-12-23T03:37:05.604Z,101763.97
2022-12-23T03:38:11.927Z,101766.72
2022-12-23T03:39:17.690Z,101764.09
2022-12-23T03:40:25.149Z,101759.66
2022-12-23T03:41:31.928Z,101768.94
2022-12-23T03:42:38.666Z,101763.91
2022-12-23T03:43:50.415Z,101757.50
2022-12-23T03:45:28.432Z,101757.59
2022-12-23T03:46:24.515Z,101763.75
2022-12-23T03:47:31.676Z,101759.31
2022-12-23T03:48:40.415Z,101764.50
2022-12-23T03:49:47.913Z,101749.69
2022-12-23T03:50:54.343Z,101753.28
2022-12-23T03:52:02.703Z,101759.78
2022-12-23T03:53:12.310Z,101753.66
2022-12-23T03:54:19.543Z,101751.50
2022-12-23T03:55:28.173Z,101746.66
2022-12-23T03:56:34.888Z,101750.91
2022-12-23T03:57:43.269Z,101750.09
2022-12-23T03:58:49.490Z,101756.56
2022-12-23T03:59:53.553Z,101753.38
2022-12-23T04:01:01.380Z,101755.75
2022-12-23T04:02:09.932Z,101753.44
2022-12-23T04:03:22.624Z,101751.84
2022-12-23T04:04:34.270Z,101754.72
2022-12-23T04:05:39.898Z,101752.91
2022-12-23T04:06:50.209Z,101750.72
2022-12-23T04:07:56.415Z,101753.94
2022-12-23T04:09:01.145Z,101758.03
2022-12-23T04:10:05.209Z,101756.28
2022-12-23T04:11:09.309Z,101756.75
2022-12-23T04:12:14.495Z,101756.41
2022-12-23T04:13:18.198Z,101751.19
2022-12-23T04:14:21.501Z,101750.97
2022-12-23T04:15:27.372Z,101753.28
2022-12-23T04:16:30.518Z,101753.66
2022-12-23T04:17:34.744Z,101754.44
2022-12-23T04:18:37.306Z,101753.41
2022-12-23T04:19:42.318Z,101750.31
2022-12-23T04:20:45.287Z,101744.28
2022-12-23T04:21:48.594Z,101752.81
2022-12-23T04:22:51.520Z,101746.38
2022-12-23T04:23:55.358Z,101750.03
2022-12-23T04:24:57.630Z,101749.97
2022-12-23T04:26:00.974Z,101755.13
2022-12-23T04:27:03.319Z,101746.81
2022-12-23T04:28:06.974Z,101751.63
2022-12-23T04:29:09.374Z,101741.66
2022-12-23T04:30:14.541Z,101741.22
2022-12-23T04:31:16.876Z,101741.94
2022-12-23T04:32:20.361Z,101748.47
2022-12-23T04:33:22.872Z,101749.84
2022-12-23T04:34:26.323Z,101748.22
2022-12-23T04:35:31.891Z,101759.34
2022-12-23T04:36:35.288Z,101754.00
2022-12-23T04:37:38.103Z,101752.22
2022-12-23T04:38:41.688Z,101756.94
2022-12-23T04:39:44.023Z,101752.50
2022-12-23T04:40:48.113Z,101758.25
2022-12-23T04:41:50.568Z,101750.16
2022-12-23T04:42:53.950Z,101755.44
2022-12-23T04:43:56.473Z,101753.00
2022-12-23T04:45:00.311Z,101753.13
2022-12-23T04:46:03.245Z,101757.06
2022-12-23T04:47:06.767Z,101755.97
2022-12-23T04:48:09.675Z,101752.38
2022-12-23T04:49:13.131Z,101745.94
2022-12-23T04:50:16.741Z,101746.59
2022-12-23T04:51:21.792Z,101755.41
2022-12-23T04:52:24.283Z,101748.72
2022-12-23T04:53:27.706Z,101756.16
2022-12-23T04:54:30.078Z,101752.88
2022-12-23T04:55:33.555Z,101759.00
2022-12-23T04:56:35.922Z,101751.16
2022-12-23T04:57:39.169Z,101748.88
2022-12-23T04:58:41.521Z,101746.47
2022-12-23T04:59:45.113Z,101746.06
2022-12-23T05:00:47.644Z,101741.63
2022-12-23T05:01:51.281Z,101744.84
2022-12-23T05:02:54.940Z,101737.50
2022-12-23T05:03:57.407Z,101736.78
2022-12-23T05:05:00.733Z,101737.47
2022-12-23T05:06:03.124Z,101726.16
2022-12-23T05:07:08.792Z,101734.16
2022-12-23T05:08:11.176Z,101723.53
2022-12-23T05:09:14.608Z,101728.47
2022-12-23T05:10:17.077Z,101727.22
2022-12-23T05:11:20.402Z,101728.91
2022-12-23T05:12:22.729Z,101718.88
2022-12-23T05:13:26.750Z,101718.13
2022-12-23T05:14:29.089Z,101725.00
2022-12-23T05:15:33.193Z,101722.88
2022-12-23T05:16:35.567Z,101719.75
2022-12-23T05:17:38.919Z,101728.72
2022-12-23T05:18:41.302Z,101721.16
2022-12-23T05:19:44.587Z,101729.06
2022-12-23T05:20:47.112Z,101727.09
2022-12-23T05:21:50.437Z,101727.09
2022-12-23T05:22:54.199Z,101726.22
2022-12-23T05:23:57.997Z,101730.34
2022-12-23T05:25:00.197Z,101726.16
2022-12-23T05:26:03.599Z,101725.88
2022-12-23T05:27:05.919Z,101724.31
2022-12-23T05:28:09.608Z,101720.06
2022-12-23T05:29:11.902Z,101724.19
2022-12-23T05:30:15.445Z,101728.78
2022-12-23T05:31:17.967Z,101720.53
2022-12-23T05:32:21.291Z,101721.91
2022-12-23T05:33:23.700Z,101719.97
2022-12-23T05:34:27.290Z,101719.84
2022-12-23T05:35:29.977Z,101714.13
2022-12-23T05:36:33.278Z,101716.47
2022-12-23T05:37:35.556Z,101719.72
2022-12-23T05:38:40.366Z,101711.69
2022-12-23T05:39:42.980Z,101716.72
2022-12-23T05:40:46.957Z,101716.25
2022-12-23T05:41:49.563Z,101714.34
2022-12-23T05:42:53.007Z,101714.94
2022-12-23T05:43:55.244Z,101701.66
2022-12-23T05:44:58.581Z,101709.13
2022-12-23T05:46:00.900Z,101706.41
2022-12-23T05:47:04.356Z,101709.81
2022-12-23T05:48:07.616Z,101710.03
2022-12-23T05:49:10.875Z,101709.13
2022-12-23T05:50:13.447Z,101706.63
2022-12-23T05:51:16.726Z,101704.34
2022-12-23T05:52:19.076Z,101697.81
2022-12-23T05:53:24.047Z,101701.22
2022-12-23T05:54:27.946Z,101708.41
2022-12-23T05:55:31.360Z,101705.56
2022-12-23T05:56:34.081Z,101699.84
2022-12-23T05:57:37.475Z,101704.66
2022-12-23T05:58:39.737Z,101704.47
2022-12-23T05:59:44.349Z,101698.22
2022-12-23T06:00:46.929Z,101698.94
2022-12-23T06:01:50.459Z,101690.50
2022-12-23T06:02:54.258Z,101690.81
2022-12-23T06:03:57.920Z,101690.63
2022-12-23T06:05:00.369Z,101698.50
2022-12-23T06:06:04.118Z,101701.84
2022-12-23T06:07:06.502Z,101694.75
2022-12-23T06:08:09.852Z,101696.56
2022-12-23T06:09:12.368Z,101705.00
2022-12-23T06:10:17.395Z,101701.50
2022-12-23T06:11:19.785Z,101700.91
2022-12-23T06:12:23.501Z,101689.69
2022-12-23T06:13:26.219Z,101701.38
2022-12-23T06:14:29.764Z,101692.72
2022-12-23T06:15:32.395Z,101694.53
2022-12-23T06:16:36.098Z,101696.94
2022-12-23T06:17:38.567Z,101695.19
2022-12-23T06:18:42.109Z,101692.03
2022-12-23T06:19:44.456Z,101693.16
2022-12-23T06:20:48.268Z,101688.72
2022-12-23T06:21:50.704Z,101686.53
2022-12-23T06:22:53.994Z,101688.81
2022-12-23T06:23:56.231Z,101687.91
2022-12-23T06:24:59.598Z,101685.25
2022-12-23T06:26:04.068Z,101683.78
2022-12-23T06:27:07.439Z,101671.56
2022-12-23T06:28:09.740Z,101676.59
2022-12-23T06:29:13.187Z,101682.78
2022-12-23T06:30:15.878Z,101678.75
2022-12-23T06:31:19.700Z,101676.94
2022-12-23T06:32:22.022Z,101677.75
2022-12-23T06:33:26.312Z,101681.06
2022-12-23T06:34:29.278Z,101679.34
2022-12-23T06:35:32.696Z,101678.66
2022-12-23T06:36:35.041Z,101679.81
2022-12-23T06:37:38.331Z,101685.03
2022-12-23T06:38:40.580Z,101684.47
2022-12-23T06:39:43.800Z,101686.75
2022-12-23T06:40:46.482Z,101681.41
2022-12-23T06:41:51.542Z,101683.44
2022-12-23T06:42:53.848Z,101679.91
2022-12-23T06:43:57.179Z,101672.38
2022-12-23T06:44:59.535Z,101674.22
2022-12-23T06:46:02.996Z,101676.38
2022-12-23T06:47:05.450Z,101670.44
2022-12-23T06:48:08.946Z,101673.97
2022-12-23T06:49:13.625Z,101677.06
2022-12-23T06:50:17.346Z,101683.22
2022-12-23T06:51:19.836Z,101689.06
2022-12-23T06:52:23.931Z,101689.59
2022-12-23T06:53:26.333Z,101681.31
2022-12-23T06:54:29.643Z,101688.13
2022-12-23T06:55:32.576Z,101676.47
2022-12-23T06:56:36.107Z,101689.50
2022-12-23T06:57:41.137Z,101685.88
2022-12-23T06:58:43.534Z,101686.53
2022-12-23T06:59:47.031Z,101683.09
2022-12-23T07:00:49.652Z,101691.19
2022-12-23T07:01:53.308Z,101692.47
2022-12-23T07:02:56.021Z,101690.19
2022-12-23T07:03:59.441Z,101686.06
2022-12-23T07:05:01.867Z,101688.69
2022-12-23T07:06:05.598Z,101682.88
2022-12-23T07:07:08.041Z,101696.13
2022-12-23T07:08:11.397Z,101692.47
2022-12-23T07:09:13.640Z,101687.09
2022-12-23T07:10:17.609Z,101690.44
2022-12-23T07:11:21.025Z,101694.75
2022-12-23T07:12:23.550Z,101693.84
2022-12-23T07:13:28.661Z,101703.31
2022-12-23T07:14:30.983Z,101703.66
2022-12-23T07:15:34.553Z,101699.44
2022-12-23T07:16:37.121Z,101697.38
2022-12-23T07:17:40.470Z,101696.91
2022-12-23T07:18:43.060Z,101698.75
2022-12-23T07:19:46.432Z,101692.34
2022-12-23T07:20:48.985Z,101687.78
2022-12-23T07:21:52.624Z,101696.34
2022-12-23T07:22:55.169Z,101698.03
2022-12-23T07:23:58.522Z,101689.09
2022-12-23T07:25:00.814Z,101691.94
2022-12-23T07:26:04.547Z,101697.19
2022-12-23T07:27:06.851Z,101700.97
2022-12-23T07:28:10.262Z,101682.84
2022-12-23T07:29:15.513Z,101683.59
2022-12-23T07:30:18.077Z,101688.13
2022-12-23T07:31:21.404Z,101683.00
2022-12-23T07:32:23.867Z,101681.81
2022-12-23T07:33:27.828Z,101685.72
2022-12-23T07:34:30.191Z,101681.44
2022-12-23T07:35:33.888Z,101674.78
2022-12-23T07:36:37.340Z,101681.84
2022-12-23T07:37:39.584Z,101689.75
2022-12-23T07:38:43.334Z,101694.81
2022-12-23T07:39:45.698Z,101692.56
2022-12-23T07:40:50.400Z,101702.69
2022-12-23T07:42:16.443Z,101699.28
2022-12-23T07:43:16.518Z,101701.91
2022-12-23T07:44:20.314Z,101700.84
2022-12-23T07:45:23.996Z,101711.41
2022-12-23T07:46:26.480Z,101710.28
2022-12-23T07:47:29.891Z,101715.16
2022-12-23T07:48:32.331Z,101710.47
2022-12-23T07:49:36.132Z,101709.03
2022-12-23T07:50:39.396Z,101712.69
2022-12-23T07:51:42.705Z,101718.03
2022-12-23T07:52:44.958Z,101716.97
2022-12-23T07:53:51.164Z,101719.06
2022-12-23T07:54:53.650Z,101730.41
2022-12-23T07:55:57.204Z,101720.59
2022-12-23T07:56:59.636Z,101723.03
2022-12-23T07:58:03.034Z,101714.34
2022-12-23T07:59:05.363Z,101722.09
2022-12-23T08:00:13.007Z,101721.06
2022-12-23T08:01:15.901Z,101717.38
2022-12-23T08:02:19.490Z,101718.31
2022-12-23T08:03:22.150Z,101717.75
2022-12-23T08:04:25.877Z,101717.50
2022-12-23T08:05:28.304Z,101722.84
2022-12-23T08:06:32.545Z,101726.59
2022-12-23T08:07:35.105Z,101741.78
2022-12-23T08:08:39.354Z,101732.88
2022-12-23T08:09:41.724Z,101739.75
2022-12-23T08:10:48.447Z,101754.22
2022-12-23T08:11:52.316Z,101749.19
2022-12-23T08:12:55.172Z,101744.38
2022-12-23T08:13:58.876Z,101759.53
2022-12-23T08:15:01.526Z,101759.53
2022-12-23T08:16:07.923Z,101757.88
2022-12-23T08:17:11.269Z,101752.97
2022-12-23T08:18:13.889Z,101752.09
2022-12-23T08:19:17.401Z,101756.69
2022-12-23T08:20:19.895Z,101758.94
2022-12-23T08:21:24.210Z,101757.09
2022-12-23T08:22:26.780Z,101757.38
2022-12-23T08:23:32.040Z,101750.81
2022-12-23T08:24:34.397Z,101757.44
2022-12-23T08:25:37.861Z,101757.91
2022-12-23T08:26:40.209Z,101751.13
2022-12-23T08:27:43.939Z,101755.97
2022-12-23T08:28:47.646Z,101754.81
2022-12-23T08:29:51.090Z,101759.50
2022-12-23T08:30:53.693Z,101755.44
2022-12-23T08:31:58.643Z,101752.81
2022-12-23T08:33:01.002Z,101758.34
2022-12-23T08:34:04.379Z,101760.75
2022-12-23T08:35:08.147Z,101762.44
2022-12-23T08:36:22.202Z,101756.44
2022-12-23T08:37:26.750Z,101755.19
2022-12-23T08:38:29.747Z,101752.13
2022-12-23T08:39:33.508Z,101741.88
2022-12-23T08:40:35.981Z,101750.38
2022-12-23T08:41:41.931Z,101748.13
2022-12-23T08:42:44.458Z,101748.41
2022-12-23T08:43:48.255Z,101755.63
2022-12-23T08:44:52.176Z,101747.13
2022-12-23T08:45:56.114Z,101751.22
2022-12-23T08:47:01.186Z,101745.94
2022-12-23T08:48:03.965Z,101749.63
2022-12-23T08:49:08.600Z,101763.56
2022-12-23T08:50:12.201Z,101756.56
2022-12-23T08:51:17.312Z,101758.00
2022-12-23T08:52:20.708Z,101755.41
2022-12-23T08:53:23.404Z,101745.41
2022-12-23T08:54:27.179Z,101748.97
2022-12-23T08:55:29.609Z,101750.41
2022-12-23T08:56:35.400Z,101747.75
2022-12-23T08:57:38.672Z,101755.91
2022-12-23T08:58:44.436Z,101750.06
2022-12-23T08:59:48.488Z,101745.25
2022-12-23T09:00:51.131Z,101738.84
2022-12-23T09:01:54.640Z,101737.78
2022-12-23T09:02:58.697Z,101739.81
2022-12-23T09:04:03.911Z,101747.94
2022-12-23T09:05:06.603Z,101752.13
2022-12-23T09:06:12.667Z,101748.34
2022-12-23T09:07:15.333Z,101745.44
2022-12-23T09:08:18.757Z,101744.38
2022-12-23T09:09:21.124Z,101752.34
2022-12-23T09:10:24.574Z,101759.69
2022-12-23T09:11:30.197Z,101756.56
2022-12-23T09:12:32.574Z,101746.97
2022-12-23T09:13:36.378Z,101747.09
2022-12-23T09:14:40.163Z,101743.81
2022-12-23T09:15:44.154Z,101753.91
2022-12-23T09:16:50.952Z,101760.56
2022-12-23T09:17:53.414Z,101761.19
2022-12-23T09:18:58.307Z,101757.81
2022-12-23T09:20:02.035Z,101763.84
2022-12-23T09:21:07.728Z,101764.56
2022-12-23T09:22:11.345Z,101767.38
2022-12-23T09:23:14.730Z,101758.63
2022-12-23T09:24:18.109Z,101761.41
2022-12-23T09:25:20.437Z,101770.69
2022-12-23T09:26:26.170Z,101765.38
2022-12-23T09:27:28.397Z,101760.50
2022-12-23T09:28:31.981Z,101766.06
2022-12-23T09:29:35.393Z,101770.00
2022-12-23T09:30:37.777Z,101772.19
2022-12-23T09:31:41.462Z,101781.38
2022-12-23T09:32:43.867Z,101766.81
2022-12-23T09:33:49.547Z,101776.84
2022-12-23T09:34:53.448Z,101772.81
2022-12-23T09:36:01.281Z,101779.16
2022-12-23T09:37:04.887Z,101764.44
2022-12-23T09:38:07.304Z,101764.56
2022-12-23T09:39:11.783Z,101764.63
2022-12-23T09:40:16.683Z,101763.72
2022-12-23T09:41:35.384Z,101762.28
2022-12-23T09:42:50.381Z,101756.66
2022-12-23T09:44:01.411Z,101755.00
2022-12-23T09:45:16.830Z,101766.47
2022-12-23T09:46:21.900Z,101759.22
2022-12-23T09:47:28.124Z,101760.69
2022-12-23T09:48:38.966Z,101758.59
2022-12-23T09:49:48.047Z,101763.06
2022-12-23T09:50:52.056Z,101758.22
2022-12-23T09:52:01.373Z,101763.91
2022-12-23T09:53:07.690Z,101776.09
2022-12-23T09:54:17.742Z,101764.00
2022-12-23T09:55:25.034Z,101767.69
2022-12-23T09:56:37.646Z,101761.94
2022-12-23T09:57:49.042Z,101755.94
2022-12-23T09:58:58.551Z,101768.47
2022-12-23T10:00:07.555Z,101767.31
2022-12-23T10:01:20.372Z,101769.94
2022-12-23T10:02:34.811Z,101781.50
2022-12-23T10:04:01.028Z,101775.06
2022-12-23T10:05:13.104Z,101779.66
2022-12-23T10:06:23.823Z,101774.91
2022-12-23T10:07:33.387Z,101779.56
2022-12-23T10:08:41.417Z,101779.44
2022-12-23T10:09:47.735Z,101778.84
2022-12-23T10:10:55.328Z,101775.94
2022-12-23T10:11:58.342Z,101777.44
2022-12-23T10:13:06.194Z,101777.81
2022-12-23T10:14:18.318Z,101778.44
2022-12-23T10:15:27.293Z,101782.44
2022-12-23T10:16:34.279Z,101779.53
2022-12-23T10:17:41.834Z,101770.06
2022-12-23T10:18:53.535Z,101766.72
2022-12-23T10:20:00.461Z,101764.09
2022-12-23T10:21:08.789Z,101770.53
2022-12-23T10:22:17.081Z,101775.25
2022-12-23T10:23:30.541Z,101770.75
2022-12-23T10:24:36.492Z,101771.34
2022-12-23T10:25:47.773Z,101763.16
2022-12-23T10:26:55.229Z,101762.66
2022-12-23T10:27:57.641Z,101756.28
2022-12-23T10:29:07.299Z,101748.59
2022-12-23T10:30:42.606Z,101745.69
2022-12-23T10:31:54.290Z,101747.50
2022-12-23T10:33:04.239Z,101742.75
2022-12-23T10:34:17.457Z,101756.72
2022-12-23T10:35:34.914Z,101753.00
2022-12-23T10:36:44.372Z,101748.75
2022-12-23T10:37:54.967Z,101746.34
2022-12-23T10:39:04.194Z,101743.47
2022-12-23T10:40:17.480Z,101738.97
2022-12-23T10:41:35.854Z,101733.25
2022-12-23T10:42:43.930Z,101736.94
2022-12-23T10:44:07.867Z,101752.59
2022-12-23T10:45:22.858Z,101753.09
2022-12-23T10:46:34.858Z,101727.41
2022-12-23T10:47:49.438Z,101753.38
2022-12-23T10:49:01.540Z,101760.78
2022-12-23T10:50:18.960Z,101754.97
2022-12-23T10:51:26.716Z,101745.44
2022-12-23T10:52:33.896Z,101746.25
2022-12-23T10:53:44.449Z,101733.78
2022-12-23T10:54:48.287Z,101729.53
2022-12-23T10:55:52.172Z,101732.19
2022-12-23T10:56:55.091Z,101739.28
2022-12-23T10:58:06.383Z,101738.22
2022-12-23T10:59:15.445Z,101731.50
2022-12-23T11:00:22.694Z,101739.41
2022-12-23T11:01:27.727Z,101727.75
2022-12-23T11:02:46.644Z,101737.72
2022-12-23T11:03:58.024Z,101737.00
2022-12-23T11:05:01.373Z,101726.16
2022-12-23T11:06:06.770Z,101722.47
2022-12-23T11:07:42.670Z,101728.81
2022-12-23T11:08:39.319Z,101723.22
2022-12-23T11:09:44.637Z,101719.03
2022-12-23T11:10:48.625Z,101718.69
2022-12-23T11:12:00.455Z,101725.38
2022-12-23T11:13:04.179Z,101722.56
2022-12-23T11:14:07.646Z,101732.31
2022-12-23T11:15:26.901Z,101721.84
2022-12-23T11:16:30.831Z,101717.63
2022-12-23T11:17:35.256Z,101712.19
2022-12-23T11:18:42.032Z,101707.66
2022-12-23T11:19:45.107Z,101695.94
2022-12-23T11:21:05.140Z,101703.69
2022-12-23T11:22:23.711Z,101693.66
2022-12-23T11:23:29.402Z,101691.00
2022-12-23T11:24:41.259Z,101690.91
2022-12-23T11:25:47.769Z,101689.81
2022-12-23T11:27:00.295Z,101683.38
2022-12-23T11:28:06.594Z,101690.44
2022-12-23T11:29:16.005Z,101675.03
2022-12-23T11:30:19.263Z,101685.22
2022-12-23T11:31:28.852Z,101687.66
2022-12-23T11:32:31.431Z,101677.94
2022-12-23T11:33:37.918Z,101670.38
2022-12-23T11:34:48.869Z,101678.03
2022-12-23T11:36:00.994Z,101664.88
2022-12-23T11:37:07.577Z,101674.03
2022-12-23T11:38:15.749Z,101666.44
2022-12-23T11:39:25.916Z,101668.94
2022-12-23T11:40:33.966Z,101675.16
2022-12-23T11:41:39.281Z,101661.81
2022-12-23T11:42:44.044Z,101667.19
2022-12-23T11:43:52.684Z,101663.91
2022-12-23T11:45:01.114Z,101661.06
2022-12-23T11:46:25.496Z,101664.66
2022-12-23T11:47:37.355Z,101654.88
2022-12-23T11:48:39.753Z,101653.66
2022-12-23T11:49:50.105Z,101650.22
2022-12-23T11:51:01.071Z,101647.50
2022-12-23T11:52:13.169Z,101650.53
2022-12-23T11:53:22.522Z,101642.78
2022-12-23T11:54:24.858Z,101647.94
2022-12-23T11:55:32.944Z,101640.09
2022-12-23T11:56:40.527Z,101647.69
2022-12-23T11:57:48.051Z,101647.38
2022-12-23T11:58:54.965Z,101646.63
2022-12-23T12:00:01.768Z,101639.13
2022-12-23T12:01:16.228Z,101642.63
2022-12-23T12:02:22.200Z,101635.22
2022-12-23T12:03:29.848Z,101638.63
2022-12-23T12:04:36.097Z,101634.59
2022-12-23T12:05:42.053Z,101629.59
2022-12-23T12:06:49.777Z,101630.06
2022-12-23T12:08:01.013Z,101628.75
2022-12-23T12:09:06.919Z,101632.38
2022-12-23T12:10:19.223Z,101626.19
2022-12-23T12:11:28.550Z,101628.81
2022-12-23T12:12:31.162Z,101631.78
2022-12-23T12:13:39.604Z,101622.78
2022-12-23T12:14:44.377Z,101622.59
2022-12-23T12:15:59.284Z,101611.53
2022-12-23T12:17:08.853Z,101615.50
2022-12-23T12:18:16.046Z,101618.00
2022-12-23T12:19:24.968Z,101608.44
2022-12-23T12:20:32.792Z,101604.66
2022-12-23T12:21:39.152Z,101598.22
2022-12-23T12:22:49.398Z,101601.56
2022-12-23T12:24:14.713Z,101599.59
2022-12-23T12:25:23.630Z,101596.50
2022-12-23T12:26:30.443Z,101595.25
2022-12-23T12:27:39.538Z,101584.34
2022-12-23T12:28:44.533Z,101583.25
2022-12-23T12:29:53.886Z,101581.09
2022-12-23T12:31:03.543Z,101585.66
2022-12-23T12:32:15.888Z,101584.06
2022-12-23T12:33:24.878Z,101581.47
2022-12-23T12:34:43.878Z,101572.19
2022-12-23T12:35:53.598Z,101573.38
2022-12-23T12:37:03.327Z,101577.69
2022-12-23T12:38:17.227Z,101573.69
2022-12-23T12:39:26.335Z,101577.97
2022-12-23T12:40:37.658Z,101575.69
2022-12-23T12:41:50.389Z,101563.41